sensor_id;sensor_type;location;lat;lon;timestamp;P1;durP1;ratioP1;P2;durP2;ratioP2
59998;SDS011;45859;51.378;6.736;2023-08-31T00:02:21;10.90;;;6.53;;
59998;SDS011;45859;51.378;6.736;2023-08-31T00:04:47;10.57;;;6.43;;
59998;SDS011;45859;51.378;6.736;2023-08-31T00:07:12;10.50;;;5.83;;
59998;SDS011;45859;51.378;6.736;2023-08-31T00:09:38;10.87;;;6.13;;
59998;SDS011;45859;51.378;6.736;2023-08-31T00:12:04;13.23;;;6.43;;
59998;SDS011;45859;51.378;6.736;2023-08-31T00:14:30;10.83;;;7.43;;
59998;SDS011;45859;51.378;6.736;2023-08-31T00:16:57;10.50;;;7.20;;
59998;SDS011;45859;51.378;6.736;2023-08-31T00:19:23;12.27;;;7.10;;
59998;SDS011;45859;51.378;6.736;2023-08-31T00:21:49;13.07;;;8.40;;
59998;SDS011;45859;51.378;6.736;2023-08-31T00:24:15;13.17;;;8.13;;
59998;SDS011;45859;51.378;6.736;2023-08-31T00:26:41;14.33;;;9.27;;
59998;SDS011;45859;51.378;6.736;2023-08-31T00:29:10;17.93;;;10.87;;
59998;SDS011;45859;51.378;6.736;2023-08-31T00:31:36;10.57;;;6.03;;
59998;SDS011;45859;51.378;6.736;2023-08-31T00:34:02;6.73;;;5.10;;
59998;SDS011;45859;51.378;6.736;2023-08-31T00:36:30;5.27;;;4.70;;
59998;SDS011;45859;51.378;6.736;2023-08-31T00:38:56;12.97;;;6.03;;
59998;SDS011;45859;51.378;6.736;2023-08-31T00:41:22;9.47;;;7.07;;
59998;SDS011;45859;51.378;6.736;2023-08-31T00:43:48;12.20;;;7.77;;
59998;SDS011;45859;51.378;6.736;2023-08-31T00:46:14;8.87;;;7.97;;
59998;SDS011;45859;51.378;6.736;2023-08-31T00:48:40;8.87;;;7.60;;
59998;SDS011;45859;51.378;6.736;2023-08-31T00:51:07;11.67;;;8.00;;
59998;SDS011;45859;51.378;6.736;2023-08-31T00:53:33;13.17;;;8.50;;
59998;SDS011;45859;51.378;6.736;2023-08-31T00:56:00;10.50;;;8.60;;
59998;SDS011;45859;51.378;6.736;2023-08-31T00:58:27;12.20;;;8.17;;
59998;SDS011;45859;51.378;6.736;2023-08-31T01:08:52;5.40;;;2.77;;
59998;SDS011;45859;51.378;6.736;2023-08-31T01:11:34;11.37;;;4.00;;
59998;SDS011;45859;51.378;6.736;2023-08-31T01:14:11;11.10;;;8.30;;
59998;SDS011;45859;51.378;6.736;2023-08-31T01:16:41;5.83;;;3.13;;
59998;SDS011;45859;51.378;6.736;2023-08-31T01:19:15;5.77;;;2.93;;
59998;SDS011;45859;51.378;6.736;2023-08-31T01:21:50;9.57;;;8.13;;
59998;SDS011;45859;51.378;6.736;2023-08-31T01:24:19;10.90;;;8.10;;
59998;SDS011;45859;51.378;6.736;2023-08-31T01:26:46;9.93;;;4.07;;
59998;SDS011;45859;51.378;6.736;2023-08-31T01:29:12;7.40;;;3.97;;
59998;SDS011;45859;51.378;6.736;2023-08-31T01:31:41;11.27;;;9.27;;
59998;SDS011;45859;51.378;6.736;2023-08-31T01:34:08;16.50;;;10.60;;
59998;SDS011;45859;51.378;6.736;2023-08-31T01:36:35;12.40;;;10.60;;
59998;SDS011;45859;51.378;6.736;2023-08-31T01:41:37;8.67;;;7.70;;
59998;SDS011;45859;51.378;6.736;2023-08-31T01:44:05;7.60;;;4.13;;
59998;SDS011;45859;51.378;6.736;2023-08-31T01:46:33;6.30;;;4.37;;
59998;SDS011;45859;51.378;6.736;2023-08-31T01:49:00;5.27;;;3.03;;
59998;SDS011;45859;51.378;6.736;2023-08-31T01:51:25;7.37;;;3.43;;
59998;SDS011;45859;51.378;6.736;2023-08-31T01:53:51;9.23;;;7.23;;
59998;SDS011;45859;51.378;6.736;2023-08-31T01:56:17;9.13;;;7.17;;
59998;SDS011;45859;51.378;6.736;2023-08-31T01:58:43;10.23;;;6.60;;
59998;SDS011;45859;51.378;6.736;2023-08-31T02:01:08;8.87;;;6.93;;
59998;SDS011;45859;51.378;6.736;2023-08-31T02:03:34;11.27;;;9.10;;
59998;SDS011;45859;51.378;6.736;2023-08-31T02:06:00;8.70;;;7.80;;
59998;SDS011;45859;51.378;6.736;2023-08-31T02:08:25;9.43;;;8.27;;
59998;SDS011;45859;51.378;6.736;2023-08-31T02:10:51;10.27;;;6.90;;
59998;SDS011;45859;51.378;6.736;2023-08-31T02:13:19;9.97;;;7.17;;
59998;SDS011;45859;51.378;6.736;2023-08-31T02:15:45;8.43;;;6.70;;
59998;SDS011;45859;51.378;6.736;2023-08-31T02:18:10;9.07;;;6.53;;
59998;SDS011;45859;51.378;6.736;2023-08-31T02:20:36;8.50;;;7.00;;
59998;SDS011;45859;51.378;6.736;2023-08-31T02:23:02;7.10;;;6.30;;
59998;SDS011;45859;51.378;6.736;2023-08-31T02:25:28;1.93;;;1.57;;
59998;SDS011;45859;51.378;6.736;2023-08-31T02:27:54;4.80;;;3.00;;
59998;SDS011;45859;51.378;6.736;2023-08-31T02:30:21;7.07;;;5.93;;
59998;SDS011;45859;51.378;6.736;2023-08-31T02:32:47;10.70;;;3.13;;
59998;SDS011;45859;51.378;6.736;2023-08-31T02:35:13;7.33;;;3.30;;
59998;SDS011;45859;51.378;6.736;2023-08-31T02:37:39;6.77;;;3.07;;
59998;SDS011;45859;51.378;6.736;2023-08-31T02:40:05;6.17;;;2.30;;
59998;SDS011;45859;51.378;6.736;2023-08-31T02:42:31;9.30;;;8.27;;
59998;SDS011;45859;51.378;6.736;2023-08-31T02:44:57;9.27;;;8.10;;
59998;SDS011;45859;51.378;6.736;2023-08-31T02:47:23;12.50;;;6.80;;
59998;SDS011;45859;51.378;6.736;2023-08-31T02:49:48;12.33;;;6.30;;
59998;SDS011;45859;51.378;6.736;2023-08-31T02:52:14;4.67;;;2.37;;
59998;SDS011;45859;51.378;6.736;2023-08-31T02:54:40;4.87;;;2.13;;
59998;SDS011;45859;51.378;6.736;2023-08-31T02:57:06;7.00;;;2.60;;
59998;SDS011;45859;51.378;6.736;2023-08-31T02:59:32;6.20;;;2.70;;
59998;SDS011;45859;51.378;6.736;2023-08-31T03:02:01;8.43;;;5.73;;
59998;SDS011;45859;51.378;6.736;2023-08-31T03:04:28;10.80;;;6.17;;
59998;SDS011;45859;51.378;6.736;2023-08-31T03:06:54;9.07;;;7.17;;
59998;SDS011;45859;51.378;6.736;2023-08-31T03:09:19;8.10;;;6.40;;
59998;SDS011;45859;51.378;6.736;2023-08-31T03:11:45;4.63;;;2.77;;
59998;SDS011;45859;51.378;6.736;2023-08-31T03:14:11;6.37;;;3.87;;
59998;SDS011;45859;51.378;6.736;2023-08-31T03:16:37;11.00;;;4.10;;
59998;SDS011;45859;51.378;6.736;2023-08-31T03:19:03;8.43;;;4.20;;
59998;SDS011;45859;51.378;6.736;2023-08-31T03:21:29;11.70;;;9.00;;
59998;SDS011;45859;51.378;6.736;2023-08-31T03:23:54;12.63;;;10.67;;
59998;SDS011;45859;51.378;6.736;2023-08-31T03:26:20;6.70;;;3.50;;
59998;SDS011;45859;51.378;6.736;2023-08-31T03:28:46;12.90;;;9.87;;
59998;SDS011;45859;51.378;6.736;2023-08-31T03:31:12;11.80;;;9.57;;
59998;SDS011;45859;51.378;6.736;2023-08-31T03:33:37;8.17;;;3.30;;
59998;SDS011;45859;51.378;6.736;2023-08-31T03:36:03;6.57;;;3.63;;
59998;SDS011;45859;51.378;6.736;2023-08-31T03:38:33;4.10;;;3.10;;
59998;SDS011;45859;51.378;6.736;2023-08-31T03:41:03;6.67;;;3.20;;
59998;SDS011;45859;51.378;6.736;2023-08-31T03:43:29;8.30;;;7.37;;
59998;SDS011;45859;51.378;6.736;2023-08-31T03:45:56;6.63;;;3.27;;
59998;SDS011;45859;51.378;6.736;2023-08-31T03:48:22;6.07;;;3.60;;
59998;SDS011;45859;51.378;6.736;2023-08-31T03:50:49;11.77;;;8.30;;
59998;SDS011;45859;51.378;6.736;2023-08-31T03:53:16;4.93;;;2.20;;
59998;SDS011;45859;51.378;6.736;2023-08-31T03:55:42;5.93;;;2.87;;
59998;SDS011;45859;51.378;6.736;2023-08-31T03:58:07;7.50;;;6.43;;
59998;SDS011;45859;51.378;6.736;2023-08-31T04:00:33;8.20;;;5.87;;
59998;SDS011;45859;51.378;6.736;2023-08-31T04:02:59;8.00;;;6.03;;
59998;SDS011;45859;51.378;6.736;2023-08-31T04:05:25;10.63;;;6.83;;
59998;SDS011;45859;51.378;6.736;2023-08-31T04:07:51;9.13;;;5.87;;
59998;SDS011;45859;51.378;6.736;2023-08-31T04:10:16;8.40;;;5.70;;
59998;SDS011;45859;51.378;6.736;2023-08-31T04:12:44;7.90;;;5.97;;
59998;SDS011;45859;51.378;6.736;2023-08-31T04:15:09;3.07;;;1.63;;
59998;SDS011;45859;51.378;6.736;2023-08-31T04:17:36;4.73;;;2.10;;
59998;SDS011;45859;51.378;6.736;2023-08-31T04:20:02;2.43;;;1.70;;
59998;SDS011;45859;51.378;6.736;2023-08-31T04:22:30;7.40;;;5.50;;
59998;SDS011;45859;51.378;6.736;2023-08-31T04:24:56;6.47;;;5.37;;
59998;SDS011;45859;51.378;6.736;2023-08-31T04:27:22;7.07;;;6.10;;
59998;SDS011;45859;51.378;6.736;2023-08-31T04:29:47;9.27;;;6.20;;
59998;SDS011;45859;51.378;6.736;2023-08-31T04:32:13;8.07;;;6.20;;
59998;SDS011;45859;51.378;6.736;2023-08-31T04:34:39;8.10;;;6.20;;
59998;SDS011;45859;51.378;6.736;2023-08-31T04:37:05;13.73;;;10.83;;
59998;SDS011;45859;51.378;6.736;2023-08-31T04:39:31;4.43;;;2.17;;
59998;SDS011;45859;51.378;6.736;2023-08-31T04:41:56;6.43;;;3.10;;
59998;SDS011;45859;51.378;6.736;2023-08-31T04:44:22;5.30;;;2.03;;
59998;SDS011;45859;51.378;6.736;2023-08-31T04:46:48;3.43;;;2.70;;
59998;SDS011;45859;51.378;6.736;2023-08-31T04:49:13;2.33;;;1.67;;
59998;SDS011;45859;51.378;6.736;2023-08-31T04:51:39;5.93;;;2.17;;
59998;SDS011;45859;51.378;6.736;2023-08-31T04:54:06;9.90;;;7.90;;
59998;SDS011;45859;51.378;6.736;2023-08-31T04:56:33;9.97;;;7.57;;
59998;SDS011;45859;51.378;6.736;2023-08-31T04:58:59;10.77;;;7.20;;
59998;SDS011;45859;51.378;6.736;2023-08-31T05:01:25;10.17;;;7.50;;
59998;SDS011;45859;51.378;6.736;2023-08-31T05:03:51;11.67;;;7.90;;
59998;SDS011;45859;51.378;6.736;2023-08-31T05:06:16;8.63;;;3.30;;
59998;SDS011;45859;51.378;6.736;2023-08-31T05:08:42;5.00;;;3.33;;
59998;SDS011;45859;51.378;6.736;2023-08-31T05:11:08;4.53;;;2.70;;
59998;SDS011;45859;51.378;6.736;2023-08-31T05:13:34;9.00;;;3.97;;
59998;SDS011;45859;51.378;6.736;2023-08-31T05:16:00;6.67;;;4.00;;
59998;SDS011;45859;51.378;6.736;2023-08-31T05:18:26;12.77;;;11.40;;
59998;SDS011;45859;51.378;6.736;2023-08-31T05:20:51;12.63;;;11.33;;
59998;SDS011;45859;51.378;6.736;2023-08-31T05:23:17;12.07;;;9.30;;
59998;SDS011;45859;51.378;6.736;2023-08-31T05:25:43;11.70;;;9.97;;
59998;SDS011;45859;51.378;6.736;2023-08-31T05:28:09;13.43;;;11.63;;
59998;SDS011;45859;51.378;6.736;2023-08-31T05:30:35;3.50;;;2.03;;
59998;SDS011;45859;51.378;6.736;2023-08-31T05:33:01;7.63;;;3.23;;
59998;SDS011;45859;51.378;6.736;2023-08-31T05:35:27;6.40;;;3.13;;
59998;SDS011;45859;51.378;6.736;2023-08-31T05:37:53;11.03;;;8.87;;
59998;SDS011;45859;51.378;6.736;2023-08-31T05:40:19;5.30;;;2.57;;
59998;SDS011;45859;51.378;6.736;2023-08-31T05:42:46;6.57;;;3.27;;
59998;SDS011;45859;51.378;6.736;2023-08-31T05:45:12;7.87;;;3.07;;
59998;SDS011;45859;51.378;6.736;2023-08-31T05:47:38;13.37;;;9.37;;
59998;SDS011;45859;51.378;6.736;2023-08-31T05:50:05;6.67;;;3.67;;
59998;SDS011;45859;51.378;6.736;2023-08-31T05:52:32;11.50;;;9.17;;
59998;SDS011;45859;51.378;6.736;2023-08-31T05:54:58;6.37;;;3.50;;
59998;SDS011;45859;51.378;6.736;2023-08-31T05:57:26;2.27;;;2.07;;
59998;SDS011;45859;51.378;6.736;2023-08-31T05:59:52;9.17;;;4.63;;
59998;SDS011;45859;51.378;6.736;2023-08-31T06:02:18;11.73;;;9.30;;
59998;SDS011;45859;51.378;6.736;2023-08-31T06:04:44;10.60;;;8.33;;
59998;SDS011;45859;51.378;6.736;2023-08-31T06:07:09;11.87;;;10.03;;
59998;SDS011;45859;51.378;6.736;2023-08-31T06:09:35;9.97;;;8.03;;
59998;SDS011;45859;51.378;6.736;2023-08-31T06:12:01;15.37;;;9.70;;
59998;SDS011;45859;51.378;6.736;2023-08-31T06:14:28;7.77;;;6.90;;
59998;SDS011;45859;51.378;6.736;2023-08-31T06:16:53;9.37;;;6.50;;
59998;SDS011;45859;51.378;6.736;2023-08-31T06:19:19;9.80;;;6.50;;
59998;SDS011;45859;51.378;6.736;2023-08-31T06:21:45;7.05;;;4.95;;
59998;SDS011;45859;51.378;6.736;2023-08-31T06:24:10;5.85;;;4.30;;
59998;SDS011;45859;51.378;6.736;2023-08-31T06:26:38;13.73;;;7.47;;
59998;SDS011;45859;51.378;6.736;2023-08-31T06:29:04;13.20;;;7.38;;
59998;SDS011;45859;51.378;6.736;2023-08-31T06:31:30;5.90;;;5.28;;
59998;SDS011;45859;51.378;6.736;2023-08-31T06:33:55;7.47;;;5.07;;
59998;SDS011;45859;51.378;6.736;2023-08-31T06:36:21;8.40;;;4.82;;
59998;SDS011;45859;51.378;6.736;2023-08-31T06:38:46;6.68;;;5.03;;
59998;SDS011;45859;51.378;6.736;2023-08-31T06:41:12;5.38;;;4.40;;
59998;SDS011;45859;51.378;6.736;2023-08-31T06:43:38;9.68;;;6.07;;
59998;SDS011;45859;51.378;6.736;2023-08-31T06:46:03;7.45;;;5.13;;
59998;SDS011;45859;51.378;6.736;2023-08-31T06:48:29;9.02;;;5.45;;
59998;SDS011;45859;51.378;6.736;2023-08-31T06:50:55;5.80;;;4.20;;
59998;SDS011;45859;51.378;6.736;2023-08-31T06:53:21;9.80;;;5.07;;
59998;SDS011;45859;51.378;6.736;2023-08-31T06:55:46;7.78;;;4.95;;
59998;SDS011;45859;51.378;6.736;2023-08-31T06:58:12;7.57;;;3.85;;
59998;SDS011;45859;51.378;6.736;2023-08-31T07:00:38;5.45;;;3.85;;
59998;SDS011;45859;51.378;6.736;2023-08-31T07:03:04;4.80;;;3.83;;
59998;SDS011;45859;51.378;6.736;2023-08-31T07:05:33;4.28;;;3.75;;
59998;SDS011;45859;51.378;6.736;2023-08-31T07:08:02;4.70;;;3.25;;
59998;SDS011;45859;51.378;6.736;2023-08-31T07:10:28;4.97;;;3.80;;
59998;SDS011;45859;51.378;6.736;2023-08-31T07:12:53;5.68;;;3.78;;
59998;SDS011;45859;51.378;6.736;2023-08-31T07:15:19;5.85;;;3.58;;
59998;SDS011;45859;51.378;6.736;2023-08-31T07:17:45;6.40;;;3.65;;
59998;SDS011;45859;51.378;6.736;2023-08-31T07:20:11;7.72;;;3.88;;
59998;SDS011;45859;51.378;6.736;2023-08-31T07:22:37;7.50;;;4.50;;
59998;SDS011;45859;51.378;6.736;2023-08-31T07:25:03;17.23;;;12.98;;
59998;SDS011;45859;51.378;6.736;2023-08-31T07:27:30;18.15;;;11.02;;
59998;SDS011;45859;51.378;6.736;2023-08-31T07:29:56;10.98;;;7.80;;
59998;SDS011;45859;51.378;6.736;2023-08-31T07:32:22;7.47;;;4.10;;
59998;SDS011;45859;51.378;6.736;2023-08-31T07:34:47;4.63;;;2.90;;
59998;SDS011;45859;51.378;6.736;2023-08-31T07:37:13;6.88;;;2.97;;
59998;SDS011;45859;51.378;6.736;2023-08-31T07:39:39;4.50;;;3.08;;
59998;SDS011;45859;51.378;6.736;2023-08-31T07:42:05;7.85;;;2.80;;
59998;SDS011;45859;51.378;6.736;2023-08-31T07:44:31;5.32;;;3.28;;
59998;SDS011;45859;51.378;6.736;2023-08-31T07:46:56;7.22;;;3.35;;
59998;SDS011;45859;51.378;6.736;2023-08-31T07:49:22;7.32;;;3.65;;
59998;SDS011;45859;51.378;6.736;2023-08-31T07:51:48;13.18;;;4.78;;
59998;SDS011;45859;51.378;6.736;2023-08-31T07:54:20;10.60;;;5.90;;
59998;SDS011;45859;51.378;6.736;2023-08-31T07:56:46;12.55;;;4.90;;
59998;SDS011;45859;51.378;6.736;2023-08-31T07:59:12;8.00;;;3.70;;
59998;SDS011;45859;51.378;6.736;2023-08-31T08:01:38;9.02;;;4.40;;
59998;SDS011;45859;51.378;6.736;2023-08-31T08:04:04;6.43;;;3.67;;
59998;SDS011;45859;51.378;6.736;2023-08-31T08:06:29;6.28;;;3.58;;
59998;SDS011;45859;51.378;6.736;2023-08-31T08:08:55;14.80;;;5.78;;
59998;SDS011;45859;51.378;6.736;2023-08-31T08:11:22;5.95;;;2.85;;
59998;SDS011;45859;51.378;6.736;2023-08-31T08:13:48;6.32;;;3.10;;
59998;SDS011;45859;51.378;6.736;2023-08-31T08:16:13;5.97;;;3.47;;
59998;SDS011;45859;51.378;6.736;2023-08-31T08:18:39;5.13;;;2.95;;
59998;SDS011;45859;51.378;6.736;2023-08-31T08:21:05;5.90;;;3.17;;
59998;SDS011;45859;51.378;6.736;2023-08-31T08:23:31;4.60;;;2.50;;
59998;SDS011;45859;51.378;6.736;2023-08-31T08:25:57;6.40;;;2.67;;
59998;SDS011;45859;51.378;6.736;2023-08-31T08:28:25;7.30;;;3.95;;
59998;SDS011;45859;51.378;6.736;2023-08-31T08:30:51;29.73;;;16.48;;
59998;SDS011;45859;51.378;6.736;2023-08-31T08:33:17;8.07;;;5.07;;
59998;SDS011;45859;51.378;6.736;2023-08-31T08:35:42;11.55;;;5.30;;
59998;SDS011;45859;51.378;6.736;2023-08-31T08:38:08;7.10;;;4.25;;
59998;SDS011;45859;51.378;6.736;2023-08-31T08:40:34;8.45;;;3.83;;
59998;SDS011;45859;51.378;6.736;2023-08-31T08:43:00;6.07;;;4.50;;
59998;SDS011;45859;51.378;6.736;2023-08-31T08:45:26;5.20;;;4.00;;
59998;SDS011;45859;51.378;6.736;2023-08-31T08:47:59;6.00;;;2.95;;
59998;SDS011;45859;51.378;6.736;2023-08-31T08:50:24;3.88;;;2.80;;
59998;SDS011;45859;51.378;6.736;2023-08-31T08:52:50;6.53;;;3.30;;
59998;SDS011;45859;51.378;6.736;2023-08-31T08:55:16;7.15;;;4.15;;
59998;SDS011;45859;51.378;6.736;2023-08-31T08:57:43;6.30;;;3.83;;
59998;SDS011;45859;51.378;6.736;2023-08-31T09:00:09;3.92;;;2.10;;
59998;SDS011;45859;51.378;6.736;2023-08-31T09:02:35;6.95;;;2.90;;
59998;SDS011;45859;51.378;6.736;2023-08-31T09:05:01;4.30;;;2.65;;
59998;SDS011;45859;51.378;6.736;2023-08-31T09:07:29;3.50;;;1.98;;
59998;SDS011;45859;51.378;6.736;2023-08-31T09:09:54;8.07;;;3.80;;
59998;SDS011;45859;51.378;6.736;2023-08-31T09:12:21;9.88;;;4.45;;
59998;SDS011;45859;51.378;6.736;2023-08-31T09:14:58;9.77;;;4.03;;
59998;SDS011;45859;51.378;6.736;2023-08-31T09:17:37;8.73;;;3.20;;
59998;SDS011;45859;51.378;6.736;2023-08-31T09:20:04;5.32;;;2.90;;
59998;SDS011;45859;51.378;6.736;2023-08-31T09:22:32;4.43;;;2.53;;
59998;SDS011;45859;51.378;6.736;2023-08-31T09:24:58;3.97;;;2.03;;
59998;SDS011;45859;51.378;6.736;2023-08-31T09:27:24;3.85;;;1.88;;
59998;SDS011;45859;51.378;6.736;2023-08-31T09:29:50;4.43;;;2.40;;
59998;SDS011;45859;51.378;6.736;2023-08-31T09:32:19;5.30;;;2.28;;
59998;SDS011;45859;51.378;6.736;2023-08-31T09:34:45;7.82;;;2.95;;
59998;SDS011;45859;51.378;6.736;2023-08-31T09:37:10;7.25;;;2.95;;
59998;SDS011;45859;51.378;6.736;2023-08-31T09:39:37;7.32;;;2.47;;
59998;SDS011;45859;51.378;6.736;2023-08-31T09:42:04;7.35;;;2.17;;
59998;SDS011;45859;51.378;6.736;2023-08-31T09:44:30;3.83;;;2.15;;
59998;SDS011;45859;51.378;6.736;2023-08-31T09:46:55;3.38;;;2.08;;
59998;SDS011;45859;51.378;6.736;2023-08-31T09:49:21;6.38;;;2.45;;
59998;SDS011;45859;51.378;6.736;2023-08-31T09:51:49;7.82;;;3.40;;
59998;SDS011;45859;51.378;6.736;2023-08-31T09:54:17;7.90;;;2.72;;
59998;SDS011;45859;51.378;6.736;2023-08-31T09:56:45;8.38;;;3.45;;
59998;SDS011;45859;51.378;6.736;2023-08-31T09:59:12;3.17;;;1.90;;
59998;SDS011;45859;51.378;6.736;2023-08-31T10:01:39;8.88;;;2.80;;
59998;SDS011;45859;51.378;6.736;2023-08-31T10:04:06;8.77;;;3.05;;
59998;SDS011;45859;51.378;6.736;2023-08-31T10:06:34;12.77;;;3.00;;
59998;SDS011;45859;51.378;6.736;2023-08-31T10:09:01;10.43;;;3.83;;
59998;SDS011;45859;51.378;6.736;2023-08-31T10:11:28;7.57;;;2.70;;
59998;SDS011;45859;51.378;6.736;2023-08-31T10:13:55;9.45;;;4.00;;
59998;SDS011;45859;51.378;6.736;2023-08-31T10:16:22;8.02;;;4.75;;
59998;SDS011;45859;51.378;6.736;2023-08-31T10:18:57;8.23;;;4.03;;
59998;SDS011;45859;51.378;6.736;2023-08-31T10:21:23;5.20;;;2.20;;
59998;SDS011;45859;51.378;6.736;2023-08-31T10:23:50;5.95;;;2.50;;
59998;SDS011;45859;51.378;6.736;2023-08-31T10:26:28;6.38;;;1.95;;
59998;SDS011;45859;51.378;6.736;2023-08-31T10:28:56;5.32;;;2.10;;
59998;SDS011;45859;51.378;6.736;2023-08-31T10:31:23;3.28;;;2.25;;
59998;SDS011;45859;51.378;6.736;2023-08-31T10:33:56;6.45;;;2.55;;
59998;SDS011;45859;51.378;6.736;2023-08-31T10:36:36;4.15;;;2.22;;
59998;SDS011;45859;51.378;6.736;2023-08-31T10:39:12;13.80;;;5.15;;
59998;SDS011;45859;51.378;6.736;2023-08-31T10:41:55;10.40;;;4.30;;
59998;SDS011;45859;51.378;6.736;2023-08-31T10:44:25;7.60;;;2.85;;
59998;SDS011;45859;51.378;6.736;2023-08-31T10:46:53;5.03;;;2.58;;
59998;SDS011;45859;51.378;6.736;2023-08-31T10:49:19;7.00;;;2.63;;
59998;SDS011;45859;51.378;6.736;2023-08-31T10:51:48;4.18;;;2.30;;
59998;SDS011;45859;51.378;6.736;2023-08-31T10:54:33;4.88;;;2.65;;
59998;SDS011;45859;51.378;6.736;2023-08-31T10:59:25;3.28;;;1.80;;
59998;SDS011;45859;51.378;6.736;2023-08-31T11:04:27;5.75;;;1.95;;
59998;SDS011;45859;51.378;6.736;2023-08-31T11:07:12;8.23;;;2.88;;
59998;SDS011;45859;51.378;6.736;2023-08-31T11:09:38;5.75;;;2.38;;
59998;SDS011;45859;51.378;6.736;2023-08-31T11:12:04;7.97;;;2.97;;
59998;SDS011;45859;51.378;6.736;2023-08-31T11:14:30;5.65;;;2.08;;
59998;SDS011;45859;51.378;6.736;2023-08-31T11:16:56;4.05;;;1.90;;
59998;SDS011;45859;51.378;6.736;2023-08-31T11:19:22;4.05;;;1.38;;
59998;SDS011;45859;51.378;6.736;2023-08-31T11:21:48;4.18;;;1.65;;
59998;SDS011;45859;51.378;6.736;2023-08-31T11:24:13;5.85;;;1.65;;
59998;SDS011;45859;51.378;6.736;2023-08-31T11:26:42;3.90;;;1.67;;
59998;SDS011;45859;51.378;6.736;2023-08-31T11:29:08;3.80;;;1.52;;
59998;SDS011;45859;51.378;6.736;2023-08-31T11:31:40;7.95;;;2.80;;
59998;SDS011;45859;51.378;6.736;2023-08-31T11:34:05;9.10;;;4.05;;
59998;SDS011;45859;51.378;6.736;2023-08-31T11:36:32;12.32;;;4.22;;
59998;SDS011;45859;51.378;6.736;2023-08-31T11:38:58;6.25;;;2.60;;
59998;SDS011;45859;51.378;6.736;2023-08-31T11:41:25;6.00;;;2.05;;
59998;SDS011;45859;51.378;6.736;2023-08-31T11:43:57;4.43;;;2.00;;
59998;SDS011;45859;51.378;6.736;2023-08-31T11:46:23;5.20;;;2.00;;
59998;SDS011;45859;51.378;6.736;2023-08-31T11:48:49;8.65;;;3.83;;
59998;SDS011;45859;51.378;6.736;2023-08-31T11:51:15;11.98;;;4.55;;
59998;SDS011;45859;51.378;6.736;2023-08-31T11:53:41;14.18;;;4.18;;
59998;SDS011;45859;51.378;6.736;2023-08-31T11:56:07;10.18;;;4.20;;
59998;SDS011;45859;51.378;6.736;2023-08-31T11:58:39;9.15;;;4.00;;
59998;SDS011;45859;51.378;6.736;2023-08-31T12:01:11;13.40;;;5.20;;
59998;SDS011;45859;51.378;6.736;2023-08-31T12:03:44;13.10;;;4.75;;
59998;SDS011;45859;51.378;6.736;2023-08-31T12:06:14;8.15;;;3.70;;
59998;SDS011;45859;51.378;6.736;2023-08-31T12:08:41;5.00;;;2.03;;
59998;SDS011;45859;51.378;6.736;2023-08-31T12:11:07;5.78;;;2.10;;
59998;SDS011;45859;51.378;6.736;2023-08-31T12:13:33;6.03;;;3.10;;
59998;SDS011;45859;51.378;6.736;2023-08-31T12:15:58;6.15;;;2.75;;
59998;SDS011;45859;51.378;6.736;2023-08-31T12:18:28;4.53;;;2.22;;
59998;SDS011;45859;51.378;6.736;2023-08-31T12:20:55;4.95;;;1.67;;
59998;SDS011;45859;51.378;6.736;2023-08-31T12:23:22;6.35;;;2.90;;
59998;SDS011;45859;51.378;6.736;2023-08-31T12:25:51;4.18;;;2.25;;
59998;SDS011;45859;51.378;6.736;2023-08-31T12:28:18;7.78;;;3.05;;
59998;SDS011;45859;51.378;6.736;2023-08-31T12:30:51;9.57;;;2.85;;
59998;SDS011;45859;51.378;6.736;2023-08-31T12:33:18;6.35;;;2.50;;
59998;SDS011;45859;51.378;6.736;2023-08-31T12:35:45;6.45;;;2.70;;
59998;SDS011;45859;51.378;6.736;2023-08-31T12:38:11;7.50;;;3.22;;
59998;SDS011;45859;51.378;6.736;2023-08-31T12:40:37;3.70;;;2.00;;
59998;SDS011;45859;51.378;6.736;2023-08-31T12:43:06;4.45;;;1.92;;
59998;SDS011;45859;51.378;6.736;2023-08-31T12:45:32;5.05;;;2.40;;
59998;SDS011;45859;51.378;6.736;2023-08-31T12:47:58;8.40;;;2.85;;
59998;SDS011;45859;51.378;6.736;2023-08-31T12:50:24;9.90;;;2.80;;
59998;SDS011;45859;51.378;6.736;2023-08-31T12:52:50;8.77;;;2.45;;
59998;SDS011;45859;51.378;6.736;2023-08-31T12:55:16;7.43;;;2.58;;
59998;SDS011;45859;51.378;6.736;2023-08-31T12:57:42;17.65;;;3.17;;
59998;SDS011;45859;51.378;6.736;2023-08-31T13:00:08;10.35;;;2.72;;
59998;SDS011;45859;51.378;6.736;2023-08-31T13:02:38;6.20;;;2.30;;
59998;SDS011;45859;51.378;6.736;2023-08-31T13:05:05;5.95;;;2.40;;
59998;SDS011;45859;51.378;6.736;2023-08-31T13:07:31;10.65;;;3.13;;
59998;SDS011;45859;51.378;6.736;2023-08-31T13:09:57;7.78;;;2.67;;
59998;SDS011;45859;51.378;6.736;2023-08-31T13:12:28;10.55;;;3.70;;
59998;SDS011;45859;51.378;6.736;2023-08-31T13:14:58;6.57;;;3.50;;
59998;SDS011;45859;51.378;6.736;2023-08-31T13:17:24;8.98;;;4.97;;
59998;SDS011;45859;51.378;6.736;2023-08-31T13:19:55;6.25;;;2.60;;
59998;SDS011;45859;51.378;6.736;2023-08-31T13:22:22;4.22;;;1.90;;
59998;SDS011;45859;51.378;6.736;2023-08-31T13:24:48;3.10;;;1.75;;
59998;SDS011;45859;51.378;6.736;2023-08-31T13:27:14;5.07;;;2.28;;
59998;SDS011;45859;51.378;6.736;2023-08-31T13:29:39;3.92;;;1.80;;
59998;SDS011;45859;51.378;6.736;2023-08-31T13:32:05;3.78;;;1.98;;
59998;SDS011;45859;51.378;6.736;2023-08-31T13:34:32;5.78;;;2.08;;
59998;SDS011;45859;51.378;6.736;2023-08-31T13:36:58;6.80;;;2.10;;
59998;SDS011;45859;51.378;6.736;2023-08-31T13:39:23;5.80;;;2.10;;
59998;SDS011;45859;51.378;6.736;2023-08-31T13:41:50;10.23;;;3.10;;
59998;SDS011;45859;51.378;6.736;2023-08-31T13:44:17;4.82;;;2.15;;
59998;SDS011;45859;51.378;6.736;2023-08-31T13:46:46;8.60;;;2.17;;
59998;SDS011;45859;51.378;6.736;2023-08-31T13:49:12;5.03;;;1.88;;
59998;SDS011;45859;51.378;6.736;2023-08-31T13:51:41;5.20;;;2.17;;
59998;SDS011;45859;51.378;6.736;2023-08-31T13:54:08;7.60;;;3.20;;
59998;SDS011;45859;51.378;6.736;2023-08-31T13:56:33;11.90;;;3.50;;
59998;SDS011;45859;51.378;6.736;2023-08-31T13:58:59;6.80;;;3.00;;
59998;SDS011;45859;51.378;6.736;2023-08-31T14:01:25;6.57;;;2.08;;
59998;SDS011;45859;51.378;6.736;2023-08-31T14:03:51;5.25;;;2.00;;
59998;SDS011;45859;51.378;6.736;2023-08-31T14:06:17;4.38;;;1.80;;
59998;SDS011;45859;51.378;6.736;2023-08-31T14:08:43;4.05;;;1.60;;
59998;SDS011;45859;51.378;6.736;2023-08-31T14:11:08;3.40;;;1.77;;
59998;SDS011;45859;51.378;6.736;2023-08-31T14:13:34;2.55;;;1.50;;
59998;SDS011;45859;51.378;6.736;2023-08-31T14:16:00;4.63;;;1.40;;
59998;SDS011;45859;51.378;6.736;2023-08-31T14:18:26;6.03;;;2.80;;
59998;SDS011;45859;51.378;6.736;2023-08-31T14:20:54;6.78;;;2.78;;
59998;SDS011;45859;51.378;6.736;2023-08-31T14:23:20;8.10;;;3.20;;
59998;SDS011;45859;51.378;6.736;2023-08-31T14:25:46;6.10;;;3.55;;
59998;SDS011;45859;51.378;6.736;2023-08-31T14:28:11;3.92;;;3.00;;
59998;SDS011;45859;51.378;6.736;2023-08-31T14:30:37;7.65;;;3.40;;
59998;SDS011;45859;51.378;6.736;2023-08-31T14:33:03;3.85;;;3.03;;
59998;SDS011;45859;51.378;6.736;2023-08-31T14:35:29;6.53;;;3.42;;
59998;SDS011;45859;51.378;6.736;2023-08-31T14:37:55;5.88;;;3.50;;
59998;SDS011;45859;51.378;6.736;2023-08-31T14:40:21;5.28;;;3.70;;
59998;SDS011;45859;51.378;6.736;2023-08-31T14:42:47;5.65;;;3.67;;
59998;SDS011;45859;51.378;6.736;2023-08-31T14:45:12;6.63;;;3.55;;
59998;SDS011;45859;51.378;6.736;2023-08-31T14:47:38;4.57;;;2.95;;
59998;SDS011;45859;51.378;6.736;2023-08-31T14:50:03;6.10;;;3.15;;
59998;SDS011;45859;51.378;6.736;2023-08-31T14:52:29;4.32;;;2.70;;
59998;SDS011;45859;51.378;6.736;2023-08-31T14:54:55;3.75;;;2.50;;
59998;SDS011;45859;51.378;6.736;2023-08-31T14:57:21;3.08;;;2.42;;